createdAt,value
2019-01-08T00:00:19.741Z,100.00
2019-01-08T00:01:26.163Z,100.00
2019-01-08T00:02:32.558Z,100.00
2019-01-08T00:03:38.946Z,100.00
2019-01-08T00:04:45.279Z,100.00
2019-01-08T00:05:51.761Z,100.00
2019-01-08T00:06:58.160Z,100.00
2019-01-08T00:08:04.597Z,100.00
2019-01-08T00:09:10.931Z,100.00
2019-01-08T00:10:17.323Z,100.00
2019-01-08T00:11:23.695Z,100.00
2019-01-08T00:12:30.152Z,100.00
2019-01-08T00:13:36.524Z,100.00
2019-01-08T00:14:42.885Z,100.00
2019-01-08T00:15:49.297Z,100.00
2019-01-08T00:16:55.671Z,100.00
2019-01-08T00:18:02.037Z,100.00
2019-01-08T00:19:08.389Z,100.00
2019-01-08T00:20:14.766Z,100.00
2019-01-08T00:21:21.138Z,100.00
2019-01-08T00:22:30.958Z,100.00
2019-01-08T00:23:37.756Z,100.00
2019-01-08T00:24:44.096Z,100.00
2019-01-08T00:25:50.482Z,100.00
2019-01-08T00:26:56.814Z,100.00
2019-01-08T00:28:03.184Z,100.00
2019-01-08T00:29:09.530Z,100.00
2019-01-08T00:30:15.864Z,100.00
2019-01-08T00:31:22.205Z,100.00
2019-01-08T00:32:28.519Z,100.00
2019-01-08T00:33:34.846Z,100.00
2019-01-08T00:34:41.160Z,100.00
2019-01-08T00:35:47.520Z,100.00
2019-01-08T00:36:53.861Z,100.00
2019-01-08T00:38:00.243Z,100.00
2019-01-08T00:39:05.864Z,100.00
2019-01-08T00:40:12.231Z,100.00
2019-01-08T00:41:18.583Z,100.00
2019-01-08T00:42:24.939Z,100.00
2019-01-08T00:43:32.237Z,100.00
2019-01-08T00:44:39.441Z,100.00
2019-01-08T00:45:45.821Z,100.00
2019-01-08T00:46:52.174Z,100.00
2019-01-08T00:47:58.520Z,100.00
2019-01-08T00:49:06.309Z,100.00
2019-01-08T00:50:13.721Z,100.00
2019-01-08T00:51:20.091Z,100.00
2019-01-08T00:52:26.390Z,100.00
2019-01-08T00:53:32.694Z,100.00
2019-01-08T00:54:39.038Z,100.00
2019-01-08T00:55:45.415Z,100.00
2019-01-08T00:56:52.797Z,100.00
2019-01-08T00:57:59.109Z,100.00
2019-01-08T00:59:06.377Z,100.00
2019-01-08T01:00:12.457Z,100.00
2019-01-08T01:01:18.795Z,100.00
2019-01-08T01:02:25.099Z,100.00
2019-01-08T01:03:31.454Z,100.00
2019-01-08T01:04:37.791Z,100.00
2019-01-08T01:05:44.170Z,100.00
2019-01-08T01:06:50.564Z,100.00
2019-01-08T01:07:56.946Z,100.00
2019-01-08T01:09:03.139Z,100.00
2019-01-08T01:10:08.631Z,100.00
2019-01-08T01:11:14.984Z,100.00
2019-01-08T01:12:21.307Z,100.00
2019-01-08T01:13:27.640Z,100.00
2019-01-08T01:14:33.961Z,100.00
2019-01-08T01:15:40.252Z,100.00
2019-01-08T01:16:46.605Z,100.00
2019-01-08T01:17:52.916Z,100.00
2019-01-08T01:18:59.282Z,100.00
2019-01-08T01:20:04.907Z,100.00
2019-01-08T01:21:11.212Z,100.00
2019-01-08T01:22:17.558Z,100.00
2019-01-08T01:23:23.941Z,100.00
2019-01-08T01:24:30.285Z,100.00
2019-01-08T01:25:36.652Z,100.00
2019-01-08T01:26:43.041Z,100.00
2019-01-08T01:27:49.388Z,100.00
2019-01-08T01:29:00.026Z,100.00
2019-01-08T01:30:02.065Z,100.00
2019-01-08T01:31:08.455Z,100.00
2019-01-08T01:32:14.785Z,100.00
2019-01-08T01:33:21.635Z,100.00
2019-01-08T01:34:27.993Z,100.00
2019-01-08T01:35:34.303Z,100.00
2019-01-08T01:36:40.667Z,100.00
2019-01-08T01:37:47.884Z,100.00
2019-01-08T01:38:54.264Z,100.00
2019-01-08T01:40:00.596Z,100.00
2019-01-08T01:41:06.974Z,100.00
2019-01-08T01:42:13.306Z,100.00
2019-01-08T01:43:19.750Z,100.00
2019-01-08T01:44:26.212Z,100.00
2019-01-08T01:45:32.558Z,100.00
2019-01-08T01:46:38.981Z,100.00
2019-01-08T01:47:45.320Z,100.00
2019-01-08T01:48:51.692Z,100.00
2019-01-08T01:49:58.391Z,100.00
2019-01-08T01:51:04.731Z,100.00
2019-01-08T01:52:11.089Z,100.00
2019-01-08T01:53:17.424Z,100.00
2019-01-08T01:54:23.732Z,100.00
2019-01-08T01:55:30.096Z,100.00
2019-01-08T01:56:36.434Z,100.00
2019-01-08T01:57:42.795Z,100.00
2019-01-08T01:58:49.147Z,100.00
2019-01-08T01:59:55.551Z,100.00
2019-01-08T02:01:01.954Z,100.00
2019-01-08T02:02:08.277Z,100.00
2019-01-08T02:03:14.566Z,100.00
2019-01-08T02:04:20.899Z,100.00
2019-01-08T02:05:27.235Z,100.00
2019-01-08T02:06:33.628Z,100.00
2019-01-08T02:07:40.856Z,100.00
2019-01-08T02:08:48.733Z,100.00
2019-01-08T02:09:55.551Z,100.00
2019-01-08T02:11:01.923Z,100.00
2019-01-08T02:12:08.302Z,100.00
2019-01-08T02:13:14.811Z,100.00
2019-01-08T02:14:21.438Z,100.00
2019-01-08T02:15:28.188Z,100.00
2019-01-08T02:16:34.532Z,100.00
2019-01-08T02:17:40.872Z,100.00
2019-01-08T02:18:47.176Z,100.00
2019-01-08T02:19:53.475Z,100.00
2019-01-08T02:20:59.800Z,100.00
2019-01-08T02:22:06.170Z,100.00
2019-01-08T02:23:12.274Z,100.00
2019-01-08T02:24:18.590Z,100.00
2019-01-08T02:25:24.914Z,100.00
2019-01-08T02:26:31.310Z,100.00
2019-01-08T02:27:37.599Z,100.00
2019-01-08T02:28:43.914Z,100.00
2019-01-08T02:29:51.262Z,100.00
2019-01-08T02:30:58.130Z,100.00
2019-01-08T02:32:04.480Z,100.00
2019-01-08T02:33:10.866Z,100.00
2019-01-08T02:34:17.174Z,100.00
2019-01-08T02:35:23.546Z,100.00
2019-01-08T02:36:29.893Z,100.00
2019-01-08T02:37:36.242Z,100.00
2019-01-08T02:38:42.544Z,100.00
2019-01-08T02:39:48.910Z,100.00
2019-01-08T02:40:55.275Z,100.00
2019-01-08T02:42:02.040Z,100.00
2019-01-08T02:43:08.320Z,100.00
2019-01-08T02:44:14.730Z,100.00
2019-01-08T02:45:21.043Z,100.00
2019-01-08T02:46:27.430Z,100.00
2019-01-08T02:47:33.720Z,100.00
2019-01-08T02:48:40.074Z,100.00
2019-01-08T02:49:46.399Z,100.00
2019-01-08T02:50:53.542Z,100.00
2019-01-08T02:52:00.101Z,100.00
2019-01-08T02:53:06.488Z,100.00
2019-01-08T02:54:12.805Z,100.00
2019-01-08T02:55:19.260Z,100.00
2019-01-08T02:56:25.658Z,100.00
2019-01-08T02:57:32.020Z,100.00
2019-01-08T02:58:38.349Z,100.00
2019-01-08T02:59:44.708Z,100.00
2019-01-08T03:00:51.037Z,100.00
2019-01-08T03:01:57.372Z,100.00
2019-01-08T03:03:03.667Z,100.00
2019-01-08T03:04:10.004Z,100.00
2019-01-08T03:05:16.368Z,100.00
2019-01-08T03:06:22.762Z,100.00
2019-01-08T03:07:29.140Z,100.00
2019-01-08T03:08:35.433Z,100.00
2019-01-08T03:09:41.784Z,100.00
2019-01-08T03:10:48.174Z,100.00
2019-01-08T03:11:55.558Z,100.00
2019-01-08T03:13:02.590Z,100.00
2019-01-08T03:14:08.956Z,100.00
2019-01-08T03:15:15.336Z,100.00
2019-01-08T03:16:21.746Z,100.00
2019-01-08T03:17:28.094Z,100.00
2019-01-08T03:18:34.462Z,100.00
2019-01-08T03:19:40.739Z,100.00
2019-01-08T03:20:47.098Z,100.00
2019-01-08T03:21:53.476Z,100.00
2019-01-08T03:23:00.803Z,100.00
2019-01-08T03:24:07.146Z,100.00
2019-01-08T03:25:13.772Z,100.00
2019-01-08T03:26:20.093Z,100.00
2019-01-08T03:27:26.431Z,100.00
2019-01-08T03:28:32.426Z,100.00
2019-01-08T03:29:38.775Z,100.00
2019-01-08T03:30:45.202Z,100.00
2019-01-08T03:31:51.532Z,100.00
2019-01-08T03:32:59.556Z,100.00
2019-01-08T03:34:06.377Z,100.00
2019-01-08T03:35:12.696Z,100.00
2019-01-08T03:36:19.091Z,100.00
2019-01-08T03:37:25.412Z,100.00
2019-01-08T03:38:31.725Z,100.00
2019-01-08T03:39:38.168Z,100.00
2019-01-08T03:40:44.679Z,100.00
2019-01-08T03:41:51.044Z,100.00
2019-01-08T03:42:58.757Z,100.00
2019-01-08T03:44:05.623Z,100.00
2019-01-08T03:45:12.093Z,100.00
2019-01-08T03:46:18.501Z,100.00
2019-01-08T03:47:24.853Z,100.00
2019-01-08T03:48:31.192Z,100.00
2019-01-08T03:49:37.582Z,100.00
2019-01-08T03:50:43.964Z,100.00
2019-01-08T03:51:50.302Z,100.00
2019-01-08T03:52:56.615Z,100.00
2019-01-08T03:54:03.812Z,100.00
2019-01-08T03:55:11.001Z,100.00
2019-01-08T03:56:17.339Z,100.00
2019-01-08T03:57:23.670Z,100.00
2019-01-08T03:58:30.062Z,100.00
2019-01-08T03:59:41.927Z,100.00
2019-01-08T04:00:42.845Z,100.00
2019-01-08T04:01:49.217Z,100.00
2019-01-08T04:02:55.542Z,100.00
2019-01-08T04:04:01.893Z,100.00
2019-01-08T04:05:07.921Z,100.00
2019-01-08T04:06:14.246Z,100.00
2019-01-08T04:07:20.626Z,100.00
2019-01-08T04:08:26.970Z,100.00
2019-01-08T04:09:33.275Z,100.00
2019-01-08T04:10:39.618Z,100.00
2019-01-08T04:11:45.636Z,100.00
2019-01-08T04:12:51.999Z,100.00
2019-01-08T04:13:59.260Z,100.00
2019-01-08T04:15:06.240Z,100.00
2019-01-08T04:16:13.375Z,100.00
2019-01-08T04:17:19.730Z,100.00
2019-01-08T04:18:26.177Z,100.00
2019-01-08T04:19:32.502Z,100.00
2019-01-08T04:20:38.780Z,100.00
2019-01-08T04:21:45.143Z,100.00
2019-01-08T04:22:51.510Z,100.00
2019-01-08T04:23:57.906Z,100.00
2019-01-08T04:25:03.872Z,100.00
2019-01-08T04:26:10.240Z,100.00
2019-01-08T04:27:16.550Z,100.00
2019-01-08T04:28:22.870Z,100.00
2019-01-08T04:29:29.167Z,100.00
2019-01-08T04:30:35.508Z,100.00
2019-01-08T04:31:41.879Z,100.00
2019-01-08T04:32:48.238Z,100.00
2019-01-08T04:33:54.648Z,100.00
2019-01-08T04:35:00.972Z,100.00
2019-01-08T04:36:08.083Z,100.00
2019-01-08T04:37:15.322Z,100.00
2019-01-08T04:38:21.813Z,100.00
2019-01-08T04:39:28.106Z,100.00
2019-01-08T04:40:34.484Z,100.00
2019-01-08T04:41:40.831Z,100.00
2019-01-08T04:42:47.170Z,100.00
2019-01-08T04:43:53.458Z,100.00
2019-01-08T04:44:59.837Z,100.00
2019-01-08T04:46:06.316Z,100.00
2019-01-08T04:47:12.781Z,100.00
2019-01-08T04:48:19.138Z,100.00
2019-01-08T04:49:25.489Z,100.00
2019-01-08T04:50:31.813Z,100.00
2019-01-08T04:51:38.200Z,100.00
2019-01-08T04:52:44.524Z,100.00
2019-01-08T04:53:50.876Z,100.00
2019-01-08T04:54:57.196Z,100.00
2019-01-08T04:56:03.548Z,100.00
2019-01-08T04:57:09.926Z,100.00
2019-01-08T04:58:16.233Z,100.00
2019-01-08T04:59:22.519Z,100.00
2019-01-08T05:00:28.805Z,100.00
2019-01-08T05:01:35.175Z,100.00
2019-01-08T05:02:41.534Z,100.00
2019-01-08T05:03:47.845Z,100.00
2019-01-08T05:04:54.165Z,100.00
2019-01-08T05:06:00.467Z,100.00
2019-01-08T05:07:06.841Z,100.00
2019-01-08T05:08:13.155Z,100.00
2019-01-08T05:09:19.491Z,100.00
2019-01-08T05:10:25.846Z,100.00
2019-01-08T05:11:32.205Z,100.00
2019-01-08T05:12:38.527Z,100.00
2019-01-08T05:13:45.074Z,100.00
2019-01-08T05:14:51.373Z,100.00
2019-01-08T05:15:57.693Z,100.00
2019-01-08T05:17:04.082Z,100.00
2019-01-08T05:18:10.423Z,100.00
2019-01-08T05:19:16.858Z,100.00
2019-01-08T05:20:24.229Z,100.00
2019-01-08T05:21:30.737Z,100.00
2019-01-08T05:22:37.190Z,100.00
2019-01-08T05:23:43.545Z,100.00
2019-01-08T05:24:49.861Z,100.00
2019-01-08T05:25:56.253Z,100.00
2019-01-08T05:27:02.726Z,100.00
2019-01-08T05:28:09.059Z,100.00
2019-01-08T05:29:15.421Z,100.00
2019-01-08T05:30:21.471Z,100.00
2019-01-08T05:31:27.867Z,100.00
2019-01-08T05:32:34.295Z,100.00
2019-01-08T05:33:40.659Z,100.00
2019-01-08T05:34:47.082Z,100.00
2019-01-08T05:35:53.457Z,100.00
2019-01-08T05:36:59.790Z,100.00
2019-01-08T05:38:06.165Z,100.00
2019-01-08T05:39:12.490Z,100.00
2019-01-08T05:40:20.081Z,100.00
2019-01-08T05:41:26.775Z,100.00
2019-01-08T05:42:33.150Z,100.00
2019-01-08T05:43:39.573Z,100.00
2019-01-08T05:44:46.069Z,100.00
2019-01-08T05:45:52.443Z,100.00
2019-01-08T05:46:58.776Z,100.00
2019-01-08T05:48:05.186Z,100.00
2019-01-08T05:49:11.627Z,100.00
2019-01-08T05:50:18.041Z,100.00
2019-01-08T05:51:24.470Z,100.00
2019-01-08T05:52:30.863Z,100.00
2019-01-08T05:53:37.226Z,100.00
2019-01-08T05:54:43.610Z,100.00
2019-01-08T05:55:49.932Z,100.00
2019-01-08T05:56:56.268Z,100.00
2019-01-08T05:58:02.639Z,100.00
2019-01-08T05:59:09.037Z,100.00
2019-01-08T06:00:16.473Z,100.00
2019-01-08T06:01:22.394Z,100.00
2019-01-08T06:02:28.804Z,100.00
2019-01-08T06:03:35.199Z,100.00
2019-01-08T06:04:41.564Z,100.00
2019-01-08T06:05:47.867Z,100.00
2019-01-08T06:06:54.238Z,100.00
2019-01-08T06:08:00.594Z,100.00
2019-01-08T06:09:06.617Z,100.00
2019-01-08T06:10:13.011Z,100.00
2019-01-08T06:11:19.377Z,100.00
2019-01-08T06:12:25.807Z,100.00
2019-01-08T06:13:32.229Z,100.00
2019-01-08T06:14:38.579Z,100.00
2019-01-08T06:15:45.010Z,100.00
2019-01-08T06:16:51.361Z,100.00
2019-01-08T06:17:57.778Z,100.00
2019-01-08T06:19:04.208Z,99.85
2019-01-08T06:20:10.572Z,98.65
2019-01-08T06:21:16.959Z,97.85
2019-01-08T06:22:23.372Z,98.21
2019-01-08T06:23:29.763Z,98.58
2019-01-08T06:24:36.144Z,99.03
2019-01-08T06:25:42.643Z,97.88
2019-01-08T06:26:48.932Z,98.36
2019-01-08T06:27:55.306Z,98.21
2019-01-08T06:29:01.642Z,98.86
2019-01-08T06:30:07.343Z,99.29
2019-01-08T06:31:13.723Z,100.00
2019-01-08T06:32:20.070Z,100.00
2019-01-08T06:33:26.434Z,99.86
2019-01-08T06:34:33.041Z,99.75
2019-01-08T06:35:39.504Z,100.00
2019-01-08T06:36:45.856Z,100.00
2019-01-08T06:37:52.214Z,100.00
2019-01-08T06:38:58.576Z,100.00
2019-01-08T06:40:04.326Z,100.00
2019-01-08T06:41:10.701Z,100.00
2019-01-08T06:42:17.076Z,100.00
2019-01-08T06:43:23.574Z,100.00
2019-01-08T06:44:29.904Z,100.00
2019-01-08T06:45:36.259Z,100.00
2019-01-08T06:46:43.830Z,100.00
2019-01-08T06:47:50.712Z,100.00
2019-01-08T06:48:57.146Z,100.00
2019-01-08T06:50:03.131Z,100.00
2019-01-08T06:51:09.432Z,100.00
2019-01-08T06:52:15.783Z,100.00
2019-01-08T06:53:22.167Z,100.00
2019-01-08T06:54:28.442Z,100.00
2019-01-08T06:55:34.726Z,100.00
2019-01-08T06:56:41.069Z,100.00
2019-01-08T06:57:47.454Z,100.00
2019-01-08T06:58:53.825Z,100.00
2019-01-08T07:00:00.195Z,100.00
2019-01-08T07:01:06.547Z,100.00
2019-01-08T07:02:12.887Z,100.00
2019-01-08T07:03:19.239Z,100.00
2019-01-08T07:04:25.677Z,100.00
2019-01-08T07:05:31.969Z,100.00
2019-01-08T07:06:38.271Z,100.00
2019-01-08T07:07:45.519Z,100.00
2019-01-08T07:08:52.337Z,100.00
2019-01-08T07:09:58.743Z,100.00
2019-01-08T07:11:04.668Z,100.00
2019-01-08T07:12:10.989Z,100.00
2019-01-08T07:13:17.312Z,100.00
2019-01-08T07:14:23.646Z,100.00
2019-01-08T07:15:29.988Z,100.00
2019-01-08T07:16:36.364Z,100.00
2019-01-08T07:17:42.733Z,100.00
2019-01-08T07:18:49.091Z,100.00
2019-01-08T07:19:55.554Z,100.00
2019-01-08T07:21:02.055Z,100.00
2019-01-08T07:22:08.474Z,100.00
2019-01-08T07:23:14.821Z,100.00
2019-01-08T07:24:21.212Z,100.00
2019-01-08T07:25:27.716Z,100.00
2019-01-08T07:26:34.096Z,100.00
2019-01-08T07:27:40.449Z,100.00
2019-01-08T07:28:47.688Z,100.00
2019-01-08T07:29:54.648Z,100.00
2019-01-08T07:31:01.235Z,100.00
2019-01-08T07:32:07.763Z,100.00
2019-01-08T07:33:14.166Z,100.00
2019-01-08T07:34:20.620Z,100.00
2019-01-08T07:35:27.002Z,100.00
2019-01-08T07:36:33.323Z,100.00
2019-01-08T07:37:39.697Z,100.00
2019-01-08T07:38:46.101Z,100.00
2019-01-08T07:39:52.107Z,100.00
2019-01-08T07:40:58.506Z,100.00
2019-01-08T07:42:04.862Z,100.00
2019-01-08T07:43:11.211Z,100.00
2019-01-08T07:44:17.646Z,100.00
2019-01-08T07:45:24.084Z,100.00
2019-01-08T07:46:30.504Z,100.00
2019-01-08T07:47:37.932Z,100.00
2019-01-08T07:48:44.387Z,100.00
2019-01-08T07:49:50.987Z,100.00
2019-01-08T07:50:57.386Z,100.00
2019-01-08T07:52:04.675Z,100.00
2019-01-08T07:53:11.134Z,100.00
2019-01-08T07:54:17.599Z,100.00
2019-01-08T07:55:23.973Z,100.00
2019-01-08T07:56:30.320Z,100.00
2019-01-08T07:57:36.660Z,100.00
2019-01-08T07:58:42.998Z,100.00
2019-01-08T07:59:49.373Z,100.00
2019-01-08T08:00:55.744Z,100.00
2019-01-08T08:02:02.110Z,100.00
2019-01-08T08:03:08.624Z,100.00
2019-01-08T08:04:15.098Z,100.00
2019-01-08T08:05:21.491Z,100.00
2019-01-08T08:06:27.859Z,100.00
2019-01-08T08:07:34.167Z,100.00
2019-01-08T08:08:40.494Z,100.00
2019-01-08T08:09:46.879Z,100.00
2019-01-08T08:10:53.252Z,100.00
2019-01-08T08:11:59.583Z,100.00
2019-01-08T08:13:06.816Z,100.00
2019-01-08T08:14:13.645Z,100.00
2019-01-08T08:15:19.986Z,100.00
2019-01-08T08:16:26.340Z,100.00
2019-01-08T08:17:32.710Z,99.59
2019-01-08T08:18:39.065Z,99.48
2019-01-08T08:19:47.003Z,98.90
2019-01-08T08:20:51.841Z,99.07
2019-01-08T08:21:58.187Z,99.38
2019-01-08T08:23:04.509Z,99.04
2019-01-08T08:24:10.877Z,99.13
2019-01-08T08:25:17.248Z,99.14
2019-01-08T08:26:23.627Z,100.00
2019-01-08T08:27:29.980Z,100.00
2019-01-08T08:28:36.298Z,100.00
2019-01-08T08:29:42.688Z,100.00
2019-01-08T08:30:49.042Z,100.00
2019-01-08T08:31:55.352Z,100.00
2019-01-08T08:33:01.786Z,100.00
2019-01-08T08:34:08.162Z,100.00
2019-01-08T08:35:15.194Z,100.00
2019-01-08T08:36:21.651Z,100.00
2019-01-08T08:37:28.078Z,100.00
2019-01-08T08:38:34.347Z,100.00
2019-01-08T08:39:40.666Z,100.00
2019-01-08T08:40:47.023Z,100.00
2019-01-08T08:41:53.343Z,100.00
2019-01-08T08:42:59.675Z,100.00
2019-01-08T08:44:06.034Z,100.00
2019-01-08T08:45:12.402Z,100.00
2019-01-08T08:46:18.765Z,100.00
2019-01-08T08:47:25.658Z,100.00
2019-01-08T08:48:31.970Z,100.00
2019-01-08T08:49:38.312Z,100.00
2019-01-08T08:50:44.644Z,100.00
2019-01-08T08:51:51.043Z,100.00
2019-01-08T08:52:57.376Z,100.00
2019-01-08T08:54:03.699Z,100.00
2019-01-08T08:55:10.046Z,100.00
2019-01-08T08:56:16.417Z,100.00
2019-01-08T08:57:22.726Z,100.00
2019-01-08T08:58:29.091Z,100.00
2019-01-08T08:59:35.431Z,100.00
2019-01-08T09:00:41.774Z,100.00
2019-01-08T09:01:48.103Z,100.00
2019-01-08T09:02:54.440Z,100.00
2019-01-08T09:04:00.752Z,100.00
2019-01-08T09:05:06.377Z,100.00
2019-01-08T09:06:12.729Z,100.00
2019-01-08T09:07:20.149Z,100.00
2019-01-08T09:08:25.422Z,100.00
2019-01-08T09:09:31.806Z,100.00
2019-01-08T09:10:37.784Z,100.00
2019-01-08T09:11:44.137Z,100.00
2019-01-08T09:12:50.558Z,100.00
2019-01-08T09:13:56.925Z,100.00
2019-01-08T09:15:03.283Z,100.00
2019-01-08T09:16:09.577Z,100.00
2019-01-08T09:17:15.883Z,100.00
2019-01-08T09:18:22.281Z,100.00
2019-01-08T09:19:28.605Z,100.00
2019-01-08T09:20:34.949Z,100.00
2019-01-08T09:21:41.260Z,100.00
2019-01-08T09:22:47.571Z,100.00
2019-01-08T09:23:53.885Z,100.00
2019-01-08T09:25:00.275Z,100.00
2019-01-08T09:26:06.765Z,100.00
2019-01-08T09:27:13.102Z,100.00
2019-01-08T09:28:19.449Z,100.00
2019-01-08T09:29:25.750Z,100.00
2019-01-08T09:30:32.102Z,100.00
2019-01-08T09:31:38.106Z,100.00
2019-01-08T09:32:44.396Z,100.00
2019-01-08T09:33:50.706Z,100.00
2019-01-08T09:34:57.026Z,100.00
2019-01-08T09:36:03.363Z,100.00
2019-01-08T09:37:09.674Z,100.00
2019-01-08T09:38:16.618Z,100.00
2019-01-08T09:39:23.495Z,100.00
2019-01-08T09:40:29.810Z,100.00
2019-01-08T09:41:35.840Z,100.00
2019-01-08T09:42:42.925Z,100.00
2019-01-08T09:43:48.545Z,100.00
2019-01-08T09:44:54.925Z,100.00
2019-01-08T09:46:01.254Z,100.00
2019-01-08T09:47:07.568Z,100.00
2019-01-08T09:48:13.889Z,100.00
2019-01-08T09:49:20.183Z,100.00
2019-01-08T09:50:26.560Z,100.00
2019-01-08T09:51:32.892Z,100.00
2019-01-08T09:52:39.222Z,100.00
2019-01-08T09:53:45.545Z,100.00
2019-01-08T09:54:51.858Z,100.00
2019-01-08T09:55:58.154Z,100.00
2019-01-08T09:57:04.463Z,100.00
2019-01-08T09:58:11.259Z,99.41
2019-01-08T09:59:17.938Z,99.09
2019-01-08T10:00:24.937Z,99.15
2019-01-08T10:01:31.246Z,98.64
2019-01-08T10:02:37.636Z,99.12
2019-01-08T10:03:43.935Z,99.09
2019-01-08T10:04:50.353Z,98.84
2019-01-08T10:05:56.699Z,98.75
2019-01-08T10:07:03.013Z,97.63
2019-01-08T10:08:09.347Z,97.03
2019-01-08T10:09:15.692Z,96.48
2019-01-08T10:10:22.144Z,97.56
2019-01-08T10:11:28.519Z,97.19
2019-01-08T10:12:34.819Z,96.84
2019-01-08T10:13:41.176Z,96.55
2019-01-08T10:14:47.469Z,95.71
2019-01-08T10:15:53.775Z,96.16
2019-01-08T10:17:00.072Z,96.27
2019-01-08T10:18:06.374Z,95.51
2019-01-08T10:19:12.872Z,95.52
2019-01-08T10:20:19.580Z,95.03
2019-01-08T10:21:26.320Z,95.77
2019-01-08T10:22:32.618Z,95.90
2019-01-08T10:23:38.911Z,96.12
2019-01-08T10:24:45.326Z,94.99
2019-01-08T10:25:51.697Z,94.42
2019-01-08T10:26:58.020Z,93.50
2019-01-08T10:28:04.358Z,93.10
2019-01-08T10:29:10.769Z,92.06
2019-01-08T10:30:17.089Z,92.58
2019-01-08T10:31:31.980Z,92.32
2019-01-08T10:32:29.864Z,92.13
2019-01-08T10:33:36.194Z,91.97
2019-01-08T10:34:42.514Z,91.60
2019-01-08T10:35:49.079Z,92.31
2019-01-08T10:36:55.595Z,91.71
2019-01-08T10:38:01.938Z,90.74
2019-01-08T10:39:07.534Z,91.61
2019-01-08T10:40:13.918Z,91.14
2019-01-08T10:41:20.292Z,91.18
2019-01-08T10:42:26.617Z,90.34
2019-01-08T10:43:33.034Z,91.18
2019-01-08T10:44:39.391Z,90.85
2019-01-08T10:45:45.716Z,91.29
2019-01-08T10:46:52.077Z,91.79
2019-01-08T10:47:58.428Z,91.49
2019-01-08T10:49:04.756Z,91.32
2019-01-08T10:50:10.793Z,91.44
2019-01-08T10:51:17.104Z,91.77
2019-01-08T10:52:23.434Z,92.45
2019-01-08T10:53:29.741Z,92.88
2019-01-08T10:54:36.081Z,93.25
2019-01-08T10:55:42.438Z,94.31
2019-01-08T10:56:48.761Z,95.49
2019-01-08T10:57:55.095Z,96.44
2019-01-08T10:59:07.530Z,97.05
2019-01-08T11:00:06.860Z,98.06
2019-01-08T11:01:13.209Z,98.36
2019-01-08T11:02:20.095Z,98.10
2019-01-08T11:03:26.446Z,98.21
2019-01-08T11:04:33.495Z,98.68
2019-01-08T11:05:39.837Z,99.19
2019-01-08T11:06:45.993Z,100.00
2019-01-08T11:07:52.420Z,100.00
2019-01-08T11:08:58.823Z,100.00
2019-01-08T11:10:04.486Z,100.00
2019-01-08T11:11:10.804Z,100.00
2019-01-08T11:12:17.166Z,100.00
2019-01-08T11:13:23.557Z,100.00
2019-01-08T11:14:29.960Z,100.00
2019-01-08T11:15:36.326Z,100.00
2019-01-08T11:16:42.702Z,100.00
2019-01-08T11:17:49.075Z,100.00
2019-01-08T11:18:55.435Z,100.00
2019-01-08T11:20:01.846Z,100.00
2019-01-08T11:21:08.319Z,100.00
2019-01-08T11:22:14.709Z,100.00
2019-01-08T11:23:21.066Z,100.00
2019-01-08T11:24:27.420Z,100.00
2019-01-08T11:25:33.831Z,100.00
2019-01-08T11:26:40.446Z,100.00
2019-01-08T11:27:46.841Z,100.00
2019-01-08T11:28:53.163Z,100.00
2019-01-08T11:29:59.483Z,100.00
2019-01-08T11:31:05.925Z,100.00
2019-01-08T11:32:12.329Z,100.00
2019-01-08T11:33:18.709Z,100.00
2019-01-08T11:34:25.091Z,100.00
2019-01-08T11:35:31.393Z,100.00
2019-01-08T11:36:37.770Z,100.00
2019-01-08T11:37:44.105Z,100.00
2019-01-08T11:38:50.453Z,100.00
2019-01-08T11:39:56.781Z,100.00
2019-01-08T11:41:03.240Z,100.00
2019-01-08T11:42:09.611Z,100.00
2019-01-08T11:43:15.962Z,100.00
2019-01-08T11:44:24.320Z,99.08
2019-01-08T11:45:28.850Z,99.43
2019-01-08T11:46:35.239Z,100.00
2019-01-08T11:47:42.336Z,99.74
2019-01-08T11:48:49.281Z,100.00
2019-01-08T11:49:55.601Z,100.00
2019-01-08T11:51:01.960Z,100.00
2019-01-08T11:52:08.314Z,100.00
2019-01-08T11:53:14.647Z,99.74
2019-01-08T11:54:20.960Z,98.53
2019-01-08T11:55:27.297Z,98.79
2019-01-08T11:56:33.666Z,98.71
2019-01-08T11:57:40.007Z,98.79
2019-01-08T11:58:46.366Z,98.76
2019-01-08T11:59:52.723Z,98.94
2019-01-08T12:00:59.103Z,99.30
2019-01-08T12:02:05.226Z,98.74
2019-01-08T12:03:11.602Z,97.94
2019-01-08T12:04:17.947Z,97.28
2019-01-08T12:05:24.287Z,98.37
2019-01-08T12:06:30.584Z,97.64
2019-01-08T12:07:36.927Z,97.07
2019-01-08T12:08:43.918Z,96.35
2019-01-08T12:09:50.220Z,96.15
2019-01-08T12:10:56.535Z,95.91
2019-01-08T12:12:02.882Z,96.21
2019-01-08T12:13:09.220Z,96.80
2019-01-08T12:14:15.574Z,96.81
2019-01-08T12:15:21.892Z,96.26
2019-01-08T12:16:28.168Z,95.40
2019-01-08T12:17:34.488Z,95.67
2019-01-08T12:18:40.833Z,95.99
2019-01-08T12:19:47.117Z,95.70
2019-01-08T12:20:53.434Z,96.44
2019-01-08T12:21:59.740Z,96.88
2019-01-08T12:23:06.097Z,95.81
2019-01-08T12:24:12.404Z,95.69
2019-01-08T12:25:18.727Z,96.54
2019-01-08T12:26:25.067Z,95.75
2019-01-08T12:27:31.452Z,95.79
2019-01-08T12:28:37.829Z,95.76
2019-01-08T12:29:44.809Z,96.58
2019-01-08T12:30:51.757Z,96.72
2019-01-08T12:32:05.656Z,96.66
2019-01-08T12:33:04.532Z,96.70
2019-01-08T12:34:10.834Z,96.31
2019-01-08T12:35:17.155Z,97.61
2019-01-08T12:36:24.337Z,97.91
2019-01-08T12:37:30.734Z,97.68
2019-01-08T12:38:37.074Z,98.22
2019-01-08T12:39:43.381Z,97.74
2019-01-08T12:40:49.739Z,97.23
2019-01-08T12:41:56.110Z,97.67
2019-01-08T12:43:02.428Z,96.72
2019-01-08T12:44:08.822Z,96.53
2019-01-08T12:45:15.238Z,96.50
2019-01-08T12:46:21.532Z,96.56
2019-01-08T12:47:27.888Z,97.28
2019-01-08T12:48:34.228Z,96.80
2019-01-08T12:49:40.547Z,97.48
2019-01-08T12:50:47.493Z,98.77
2019-01-08T12:51:54.008Z,99.08
2019-01-08T12:53:00.332Z,98.80
2019-01-08T12:54:06.640Z,98.75
2019-01-08T12:55:13.164Z,98.95
2019-01-08T12:56:19.301Z,98.23
2019-01-08T12:57:25.631Z,98.45
2019-01-08T12:58:31.933Z,98.59
2019-01-08T12:59:38.220Z,99.36
2019-01-08T13:00:44.568Z,99.45
2019-01-08T13:01:50.914Z,98.76
2019-01-08T13:02:57.259Z,98.61
2019-01-08T13:04:03.605Z,98.10
2019-01-08T13:05:09.643Z,98.16
2019-01-08T13:06:15.972Z,97.76
2019-01-08T13:07:22.372Z,97.78
2019-01-08T13:08:28.676Z,97.25
2019-01-08T13:09:35.052Z,97.39
2019-01-08T13:10:41.430Z,97.16
2019-01-08T13:11:47.705Z,98.15
2019-01-08T13:12:54.201Z,99.27
2019-01-08T13:14:00.491Z,100.00
2019-01-08T13:15:06.130Z,100.00
2019-01-08T13:16:12.479Z,100.00
2019-01-08T13:17:18.855Z,100.00
2019-01-08T13:18:25.182Z,100.00
2019-01-08T13:19:31.568Z,100.00
2019-01-08T13:20:37.920Z,100.00
2019-01-08T13:21:44.282Z,100.00
2019-01-08T13:22:50.743Z,100.00
2019-01-08T13:23:57.123Z,100.00
2019-01-08T13:25:03.493Z,100.00
2019-01-08T13:26:10.639Z,100.00
2019-01-08T13:27:17.082Z,100.00
2019-01-08T13:28:23.619Z,100.00
2019-01-08T13:29:29.827Z,100.00
2019-01-08T13:30:35.816Z,100.00
2019-01-08T13:31:42.217Z,100.00
2019-01-08T13:32:47.859Z,100.00
2019-01-08T13:33:54.984Z,100.00
2019-01-08T13:35:01.922Z,100.00
2019-01-08T13:36:07.954Z,100.00
2019-01-08T13:37:14.319Z,100.00
2019-01-08T13:38:20.699Z,100.00
2019-01-08T13:39:27.258Z,100.00
2019-01-08T13:40:33.588Z,100.00
2019-01-08T13:41:39.985Z,100.00
2019-01-08T13:42:46.332Z,100.00
2019-01-08T13:43:52.676Z,100.00
2019-01-08T13:44:59.093Z,100.00
2019-01-08T13:46:05.455Z,100.00
2019-01-08T13:47:12.622Z,100.00
2019-01-08T13:48:19.007Z,100.00
2019-01-08T13:49:25.453Z,100.00
2019-01-08T13:50:31.843Z,100.00
2019-01-08T13:51:38.235Z,100.00
2019-01-08T13:52:44.647Z,100.00
2019-01-08T13:53:50.991Z,100.00